createdAt,value
2022-12-14T00:00:54.708Z,-0.51
2022-12-14T00:02:57.182Z,-0.51
2022-12-14T00:04:59.521Z,-0.57
2022-12-14T00:07:01.596Z,-0.39
2022-12-14T00:09:05.053Z,-0.43
2022-12-14T00:11:07.117Z,-0.39
2022-12-14T00:13:12.657Z,-0.41
2022-12-14T00:15:14.775Z,-0.44
2022-12-14T00:17:16.753Z,-0.42
2022-12-14T00:19:21.488Z,-0.37
2022-12-14T00:21:23.832Z,-0.34
2022-12-14T00:23:25.821Z,-0.34
2022-12-14T00:25:29.296Z,-0.37
2022-12-14T00:27:31.124Z,-0.37
2022-12-14T00:29:33.107Z,-0.43
2022-12-14T00:31:36.513Z,-0.50
2022-12-14T00:33:39.054Z,-0.49
2022-12-14T00:35:44.136Z,-0.49
2022-12-14T00:37:48.921Z,-0.42
2022-12-14T00:39:51.142Z,-0.48
2022-12-14T00:41:53.598Z,-0.56
2022-12-14T00:43:55.476Z,-0.52
2022-12-14T00:45:57.684Z,-0.49
2022-12-14T00:47:59.732Z,-0.51
2022-12-14T00:50:01.839Z,-0.52
2022-12-14T00:52:03.893Z,-0.53
2022-12-14T00:54:05.999Z,-0.48
2022-12-14T00:56:08.811Z,-0.47
2022-12-14T00:58:12.813Z,-0.47
2022-12-14T01:00:16.578Z,-0.56
2022-12-14T01:02:18.909Z,-0.55
2022-12-14T01:04:23.351Z,-0.55
2022-12-14T01:06:25.568Z,-0.54
2022-12-14T01:08:35.927Z,-0.56
2022-12-14T01:10:41.140Z,-0.53
2022-12-14T01:12:43.215Z,-0.50
2022-12-14T01:14:46.435Z,-0.49
2022-12-14T01:16:48.572Z,-0.42
2022-12-14T01:18:50.698Z,-0.46
2022-12-14T01:20:52.743Z,-0.48
2022-12-14T01:22:59.055Z,-0.47
2022-12-14T01:25:01.132Z,-0.44
2022-12-14T01:27:03.470Z,-0.53
2022-12-14T01:29:06.365Z,-0.51
2022-12-14T01:31:17.928Z,-0.57
2022-12-14T01:33:19.965Z,-0.62
2022-12-14T01:35:22.009Z,-0.59
2022-12-14T01:37:23.924Z,-0.55
2022-12-14T01:39:25.917Z,-0.58
2022-12-14T01:41:29.482Z,-0.55
2022-12-14T01:43:51.837Z,-0.51
2022-12-14T01:45:57.875Z,-0.54
2022-12-14T01:48:02.998Z,-0.58
2022-12-14T01:50:25.460Z,-0.67
2022-12-14T01:52:40.109Z,-0.56
2022-12-14T01:54:49.249Z,-0.56
2022-12-14T01:56:52.550Z,-0.59
2022-12-14T01:58:56.933Z,-0.56
2022-12-14T02:01:02.592Z,-0.56
2022-12-14T02:03:13.038Z,-0.66
2022-12-14T02:05:18.465Z,-0.58
2022-12-14T02:07:21.855Z,-0.54
2022-12-14T02:09:30.525Z,-0.54
2022-12-14T02:11:43.867Z,-0.56
2022-12-14T02:13:48.904Z,-0.55
2022-12-14T02:15:52.220Z,-0.45
2022-12-14T02:17:54.566Z,-0.46
2022-12-14T02:19:58.285Z,-0.57
2022-12-14T02:22:12.652Z,-0.61
2022-12-14T02:24:30.136Z,-0.50
2022-12-14T02:26:55.147Z,-0.52
2022-12-14T02:29:18.295Z,-0.52
2022-12-14T02:32:11.129Z,-0.52
2022-12-14T02:34:32.553Z,-0.54
2022-12-14T02:36:43.730Z,-0.51
2022-12-14T02:39:34.751Z,-0.56
2022-12-14T02:42:09.126Z,-0.48
2022-12-14T02:44:44.875Z,-0.43
2022-12-14T02:47:16.225Z,-0.40
2022-12-14T02:49:23.949Z,-0.51
2022-12-14T02:51:57.622Z,-0.55
2022-12-14T02:54:17.825Z,-0.55
2022-12-14T02:56:25.641Z,-0.49
2022-12-14T02:58:38.324Z,-0.47
2022-12-14T03:00:41.206Z,-0.35
2022-12-14T03:02:44.963Z,-0.35
2022-12-14T03:04:51.168Z,-0.46
2022-12-14T03:07:24.709Z,-0.48
2022-12-14T03:09:31.417Z,-0.38
2022-12-14T03:11:56.354Z,-0.37
2022-12-14T03:14:24.111Z,-0.36
2022-12-14T03:16:32.176Z,-0.28
2022-12-14T03:18:43.029Z,-0.30
2022-12-14T03:20:50.511Z,-0.26
2022-12-14T03:23:15.916Z,-0.20
2022-12-14T03:25:25.656Z,-0.18
2022-12-14T03:27:35.168Z,-0.23
2022-12-14T03:29:53.362Z,-0.15
2022-12-14T03:32:26.759Z,-0.16
2022-12-14T03:34:34.237Z,-0.15
2022-12-14T03:36:44.145Z,-0.23
2022-12-14T03:38:51.272Z,-0.12
2022-12-14T03:40:57.803Z,-0.07
2022-12-14T03:43:33.035Z,-0.03
2022-12-14T03:46:01.375Z,0.01
2022-12-14T03:48:42.910Z,0.04
2022-12-14T03:51:01.555Z,0.06
2022-12-14T03:53:06.107Z,0.07
2022-12-14T03:55:09.028Z,0.01
2022-12-14T03:57:34.625Z,0.01
2022-12-14T04:00:01.817Z,0.02
2022-12-14T04:02:11.176Z,0.10
2022-12-14T04:04:18.886Z,0.11
2022-12-14T04:06:38.865Z,0.11
2022-12-14T04:08:49.986Z,-0.01
2022-12-14T04:11:14.758Z,-0.03
2022-12-14T04:13:40.503Z,0.06
2022-12-14T04:16:02.749Z,0.12
2022-12-14T04:18:28.126Z,0.10
2022-12-14T04:20:53.130Z,0.06
2022-12-14T04:23:04.021Z,0.14
2022-12-14T04:25:38.693Z,0.16
2022-12-14T04:28:00.224Z,0.09
2022-12-14T04:30:05.253Z,0.12
2022-12-14T04:32:18.447Z,0.15
2022-12-14T04:34:24.631Z,0.16
2022-12-14T04:36:34.369Z,0.12
2022-12-14T04:39:26.392Z,0.04
2022-12-14T04:41:34.129Z,0.21
2022-12-14T04:43:41.160Z,0.17
2022-12-14T04:45:58.646Z,0.22
2022-12-14T04:48:31.062Z,0.26
2022-12-14T04:50:39.906Z,0.26
2022-12-14T04:52:49.630Z,0.33
2022-12-14T04:54:56.810Z,0.34
2022-12-14T04:57:26.096Z,0.30
2022-12-14T04:59:29.121Z,0.31
2022-12-14T05:01:57.733Z,0.29
2022-12-14T05:04:31.819Z,0.38
2022-12-14T05:06:44.182Z,0.41
2022-12-14T05:08:55.701Z,0.53
2022-12-14T05:11:39.641Z,0.50
2022-12-14T05:13:49.123Z,0.52
2022-12-14T05:15:56.681Z,0.56
2022-12-14T05:18:03.946Z,0.62
2022-12-14T05:20:12.942Z,0.53
2022-12-14T05:22:15.073Z,0.65
2022-12-14T05:24:17.514Z,0.65
2022-12-14T05:26:19.448Z,0.68
2022-12-14T05:28:21.714Z,0.61
2022-12-14T05:30:23.780Z,0.75
2022-12-14T05:32:26.388Z,0.72
2022-12-14T05:34:28.447Z,0.77
2022-12-14T05:36:30.577Z,0.79
2022-12-14T05:38:32.673Z,0.73
2022-12-14T05:40:34.736Z,0.76
2022-12-14T05:42:41.088Z,0.73
2022-12-14T05:44:46.817Z,0.65
2022-12-14T05:46:48.846Z,0.68
2022-12-14T05:48:51.063Z,0.74
2022-12-14T05:50:53.216Z,0.69
2022-12-14T05:52:56.006Z,0.79
2022-12-14T05:55:02.441Z,0.83
2022-12-14T05:57:07.135Z,0.88
2022-12-14T05:59:09.455Z,0.80
2022-12-14T06:01:17.221Z,0.84
2022-12-14T06:03:21.773Z,0.84
2022-12-14T06:05:23.962Z,0.84
2022-12-14T06:07:28.110Z,0.88
2022-12-14T06:09:30.665Z,0.79
2022-12-14T06:11:33.503Z,0.95
2022-12-14T06:13:36.871Z,0.98
2022-12-14T06:15:38.737Z,0.94
2022-12-14T06:17:47.541Z,1.07
2022-12-14T06:19:50.600Z,0.98
2022-12-14T06:21:52.579Z,1.06
2022-12-14T06:23:55.664Z,1.16
2022-12-14T06:25:57.899Z,1.24
2022-12-14T06:27:59.962Z,1.26
2022-12-14T06:30:02.172Z,1.33
2022-12-14T06:32:04.390Z,1.34
2022-12-14T06:34:06.425Z,1.40
2022-12-14T06:36:26.924Z,1.37
2022-12-14T06:38:29.168Z,1.39
2022-12-14T06:40:31.633Z,1.43
2022-12-14T06:42:33.591Z,1.48
2022-12-14T06:44:35.833Z,1.54
2022-12-14T06:46:38.104Z,1.56
2022-12-14T06:48:40.350Z,1.57
2022-12-14T06:50:42.312Z,1.59
2022-12-14T06:52:44.388Z,1.56
2022-12-14T06:54:47.123Z,1.49
2022-12-14T06:56:49.488Z,1.33
2022-12-14T06:58:52.988Z,1.44
2022-12-14T07:00:55.079Z,1.43
2022-12-14T07:02:57.330Z,1.48
2022-12-14T07:04:59.764Z,1.51
2022-12-14T07:07:02.188Z,1.53
2022-12-14T07:09:05.879Z,1.51
2022-12-14T07:11:10.920Z,1.53
2022-12-14T07:13:13.099Z,1.54
2022-12-14T07:15:15.558Z,1.65
2022-12-14T07:17:17.566Z,1.68
2022-12-14T07:19:19.430Z,1.71
2022-12-14T07:21:22.819Z,1.38
2022-12-14T07:23:28.107Z,1.36
2022-12-14T07:25:30.539Z,1.42
2022-12-14T07:27:33.002Z,1.47
2022-12-14T07:29:35.218Z,1.32
2022-12-14T07:31:37.387Z,1.40
2022-12-14T07:33:39.839Z,1.38
2022-12-14T07:35:42.235Z,1.45
2022-12-14T07:37:49.349Z,1.47
2022-12-14T07:39:54.819Z,1.56
2022-12-14T07:41:56.835Z,1.54
2022-12-14T07:44:00.991Z,1.62
2022-12-14T07:46:05.610Z,1.66
2022-12-14T07:48:07.826Z,1.61
2022-12-14T07:50:10.731Z,1.63
2022-12-14T07:52:12.849Z,1.72
2022-12-14T07:54:14.983Z,1.78
2022-12-14T07:56:20.918Z,1.78
2022-12-14T07:58:23.030Z,1.77
2022-12-14T08:00:25.135Z,1.84
2022-12-14T08:02:27.452Z,1.85
2022-12-14T08:04:29.639Z,1.95
2022-12-14T08:06:32.174Z,2.02
2022-12-14T08:08:37.151Z,2.02
2022-12-14T08:10:40.644Z,2.04
2022-12-14T08:12:42.990Z,2.10
2022-12-14T08:14:45.168Z,2.10
2022-12-14T08:16:48.721Z,2.15
2022-12-14T08:18:53.369Z,2.19
2022-12-14T08:20:55.594Z,2.15
2022-12-14T08:22:57.797Z,2.14
2022-12-14T08:25:00.222Z,2.15
2022-12-14T08:27:02.710Z,2.26
2022-12-14T08:29:05.797Z,2.25
2022-12-14T08:31:11.537Z,2.21
2022-12-14T08:33:13.737Z,2.27
2022-12-14T08:35:15.957Z,2.28
2022-12-14T08:37:17.963Z,2.33
2022-12-14T08:39:20.225Z,2.31
2022-12-14T08:41:23.398Z,2.28
2022-12-14T08:43:28.982Z,2.37
2022-12-14T08:45:31.390Z,2.49
2022-12-14T08:47:33.529Z,2.44
2022-12-14T08:49:35.822Z,2.56
2022-12-14T08:51:38.850Z,2.63
2022-12-14T08:53:40.930Z,2.68
2022-12-14T08:55:43.663Z,2.74
2022-12-14T08:57:45.886Z,2.79
2022-12-14T09:00:03.782Z,2.84
2022-12-14T09:02:06.611Z,2.94
2022-12-14T09:04:09.042Z,3.04
2022-12-14T09:06:16.485Z,3.03
2022-12-14T09:08:18.622Z,3.10
2022-12-14T09:10:20.470Z,3.17
2022-12-14T09:12:23.486Z,3.24
2022-12-14T09:14:25.514Z,3.25
2022-12-14T09:16:27.889Z,3.32
2022-12-14T09:18:30.690Z,3.27
2022-12-14T09:20:33.544Z,3.33
2022-12-14T09:22:35.704Z,3.37
2022-12-14T09:24:38.019Z,3.37
2022-12-14T09:26:40.257Z,3.45
2022-12-14T09:28:46.186Z,3.46
2022-12-14T09:30:48.229Z,3.53
2022-12-14T09:32:50.712Z,3.53
2022-12-14T09:34:53.293Z,3.56
2022-12-14T09:36:55.425Z,3.49
2022-12-14T09:38:58.027Z,3.61
2022-12-14T09:41:07.637Z,3.70
2022-12-14T09:43:20.369Z,3.69
2022-12-14T09:45:29.094Z,3.77
2022-12-14T09:47:35.848Z,3.75
2022-12-14T09:50:06.836Z,3.70
2022-12-14T09:52:18.333Z,3.71
2022-12-14T09:54:26.457Z,3.74
2022-12-14T09:56:28.967Z,3.78
2022-12-14T09:58:33.266Z,3.81
2022-12-14T10:00:48.197Z,3.79
2022-12-14T10:03:40.626Z,3.73
2022-12-14T10:05:48.929Z,3.82
2022-12-14T10:07:59.580Z,3.85
2022-12-14T10:10:10.813Z,3.90
2022-12-14T10:12:34.614Z,3.87
2022-12-14T10:15:24.439Z,3.99
2022-12-14T10:18:01.450Z,3.98
2022-12-14T10:20:30.088Z,3.92
2022-12-14T10:22:37.930Z,4.06
2022-12-14T10:24:49.193Z,4.11
2022-12-14T10:26:53.578Z,4.13
2022-12-14T10:29:32.888Z,4.08
2022-12-14T10:31:41.139Z,4.24
2022-12-14T10:33:45.743Z,4.32
2022-12-14T10:35:55.308Z,4.39
2022-12-14T10:38:25.208Z,4.43
2022-12-14T10:40:34.242Z,4.43
2022-12-14T10:42:55.630Z,4.48
2022-12-14T10:45:39.023Z,4.47
2022-12-14T10:47:38.138Z,4.46
2022-12-14T10:49:53.420Z,4.51
2022-12-14T10:52:03.562Z,4.57
2022-12-14T10:54:23.703Z,4.50
2022-12-14T10:56:34.192Z,4.51
2022-12-14T10:58:36.274Z,4.58
2022-12-14T11:00:38.532Z,4.60
2022-12-14T11:02:44.374Z,4.52
2022-12-14T11:04:56.583Z,4.64
2022-12-14T11:07:04.832Z,4.55
2022-12-14T11:09:21.756Z,4.60
2022-12-14T11:11:26.114Z,4.69
2022-12-14T11:13:28.387Z,4.74
2022-12-14T11:15:38.015Z,4.61
2022-12-14T11:17:42.973Z,4.64
2022-12-14T11:20:02.821Z,4.71
2022-12-14T11:22:18.662Z,4.66
2022-12-14T11:24:27.404Z,4.83
2022-12-14T11:26:43.203Z,4.78
2022-12-14T11:28:56.423Z,4.79
2022-12-14T11:31:13.964Z,4.80
2022-12-14T11:33:17.952Z,4.84
2022-12-14T11:35:21.479Z,4.88
2022-12-14T11:37:27.104Z,4.86
2022-12-14T11:39:29.420Z,4.87
2022-12-14T11:41:59.151Z,4.77
2022-12-14T11:44:24.181Z,4.74
2022-12-14T11:46:47.468Z,4.75
2022-12-14T11:48:52.704Z,4.72
2022-12-14T11:51:08.941Z,4.80
2022-12-14T11:53:17.332Z,4.88
2022-12-14T11:55:27.130Z,4.88
2022-12-14T11:57:59.648Z,4.86
2022-12-14T12:00:06.060Z,4.90
2022-12-14T12:02:41.169Z,4.87
2022-12-14T12:04:56.240Z,4.77
2022-12-14T12:07:04.268Z,4.92
2022-12-14T12:09:21.888Z,4.95
2022-12-14T12:11:28.687Z,4.96
2022-12-14T12:13:42.293Z,4.93
2022-12-14T12:15:51.315Z,4.99
2022-12-14T12:17:58.178Z,5.00
2022-12-14T12:20:00.064Z,5.04
2022-12-14T12:22:04.214Z,5.02
2022-12-14T12:24:38.744Z,4.99
2022-12-14T12:27:12.442Z,4.99
2022-12-14T12:29:38.190Z,5.00
2022-12-14T12:31:57.237Z,5.02
2022-12-14T12:34:14.376Z,5.04
2022-12-14T12:36:23.939Z,5.07
2022-12-14T12:38:50.117Z,5.05
2022-12-14T12:41:16.905Z,5.06
2022-12-14T12:43:32.183Z,4.98
2022-12-14T12:45:44.626Z,5.04
2022-12-14T12:48:04.350Z,4.95
2022-12-14T12:50:30.636Z,5.06
2022-12-14T12:52:48.897Z,5.00
2022-12-14T12:55:00.513Z,5.02
2022-12-14T12:57:05.151Z,5.15
2022-12-14T12:59:07.933Z,5.16
2022-12-14T13:01:19.994Z,5.12
2022-12-14T13:03:53.501Z,4.99
2022-12-14T13:06:03.139Z,4.98
2022-12-14T13:08:13.689Z,5.12
2022-12-14T13:10:32.349Z,5.12
2022-12-14T13:12:42.209Z,5.15
2022-12-14T13:14:50.281Z,5.18
2022-12-14T13:16:54.468Z,5.19
2022-12-14T13:21:36.737Z,5.16
2022-12-14T13:23:46.330Z,5.19
2022-12-14T13:26:55.608Z,5.06
2022-12-14T13:28:57.375Z,5.17
2022-12-14T13:31:21.045Z,5.07
2022-12-14T13:33:42.166Z,5.11
2022-12-14T13:36:15.509Z,5.07
2022-12-14T13:38:42.236Z,5.14
2022-12-14T13:41:19.933Z,5.16
2022-12-14T13:43:49.778Z,5.12
2022-12-14T13:45:51.945Z,5.12
2022-12-14T13:47:57.244Z,5.05
2022-12-14T13:52:41.758Z,4.95
2022-12-14T13:54:47.726Z,5.04
2022-12-14T13:56:50.158Z,5.05
2022-12-14T13:58:52.949Z,5.04
2022-12-14T14:00:58.562Z,5.07
2022-12-14T14:03:00.710Z,5.14
2022-12-14T14:05:20.611Z,5.04
2022-12-14T14:07:25.532Z,5.01
2022-12-14T14:09:33.857Z,5.07
2022-12-14T14:11:37.537Z,5.16
2022-12-14T14:13:40.334Z,5.21
2022-12-14T14:16:26.425Z,5.12
2022-12-14T14:18:19.901Z,5.17
2022-12-14T14:20:35.256Z,5.14
2022-12-14T14:22:39.123Z,5.09
2022-12-14T14:25:02.522Z,5.12
2022-12-14T14:27:07.598Z,5.18
2022-12-14T14:29:21.432Z,5.20
2022-12-14T14:31:43.972Z,5.25
2022-12-14T14:33:49.694Z,5.30
2022-12-14T14:35:51.976Z,5.35
2022-12-14T14:37:59.405Z,5.33
2022-12-14T14:40:20.659Z,5.28
2022-12-14T14:42:29.698Z,5.28
2022-12-14T14:44:40.784Z,5.32
2022-12-14T14:46:48.612Z,5.35
2022-12-14T14:48:56.596Z,5.33
2022-12-14T14:51:05.978Z,5.32
2022-12-14T14:53:30.091Z,5.31
2022-12-14T14:58:01.225Z,5.30
2022-12-14T15:00:06.745Z,5.31
2022-12-14T15:02:41.906Z,5.31
2022-12-14T15:04:51.546Z,5.31
2022-12-14T15:07:07.691Z,5.33
2022-12-14T15:09:09.707Z,5.34
2022-12-14T15:11:17.101Z,5.26
2022-12-14T15:13:30.243Z,5.35
2022-12-14T15:15:46.059Z,5.45
2022-12-14T15:17:48.098Z,5.39
2022-12-14T15:20:03.257Z,5.31
2022-12-14T15:22:36.642Z,5.28
2022-12-14T15:24:42.452Z,5.29
2022-12-14T15:26:44.583Z,5.23
2022-12-14T15:28:49.380Z,5.39
2022-12-14T15:30:51.770Z,5.23
2022-12-14T15:32:59.286Z,5.39
2022-12-14T15:35:08.631Z,5.39
2022-12-14T15:37:37.130Z,5.32
2022-12-14T15:39:40.778Z,5.37
2022-12-14T15:41:43.180Z,5.45
2022-12-14T15:43:47.063Z,5.37
2022-12-14T15:45:55.671Z,5.44
2022-12-14T15:48:40.387Z,5.38
2022-12-14T15:50:46.665Z,5.45
2022-12-14T15:52:51.280Z,5.53
2022-12-14T15:54:53.596Z,5.50
2022-12-14T15:56:57.903Z,5.46
2022-12-14T15:59:31.751Z,5.45
2022-12-14T16:01:54.204Z,5.46
2022-12-14T16:04:07.821Z,5.44
2022-12-14T16:06:14.585Z,5.39
2022-12-14T16:08:17.827Z,5.48
2022-12-14T16:10:29.050Z,5.42
2022-12-14T16:12:44.732Z,5.49
2022-12-14T16:14:47.713Z,5.49
2022-12-14T16:16:50.945Z,5.30
2022-12-14T16:18:53.089Z,5.45
2022-12-14T16:21:00.550Z,5.43
2022-12-14T16:23:20.298Z,5.44
2022-12-14T16:25:22.391Z,5.47
2022-12-14T16:27:27.820Z,5.51
2022-12-14T16:29:32.488Z,5.54
2022-12-14T16:31:36.353Z,5.51
2022-12-14T16:33:40.993Z,5.51
2022-12-14T16:35:44.768Z,5.48
2022-12-14T16:37:51.385Z,5.44
2022-12-14T16:39:53.727Z,5.53
2022-12-14T16:42:00.832Z,5.42
2022-12-14T16:44:07.722Z,5.53
2022-12-14T16:46:15.493Z,5.44
2022-12-14T16:48:21.313Z,5.55
2022-12-14T16:50:56.632Z,5.50
2022-12-14T16:52:47.313Z,5.51
2022-12-14T16:55:14.418Z,5.47
2022-12-14T16:57:24.470Z,5.48
2022-12-14T16:59:38.302Z,5.45
2022-12-14T17:01:45.125Z,5.43
2022-12-14T17:04:00.138Z,5.40
2022-12-14T17:06:07.567Z,5.36
2022-12-14T17:08:11.747Z,5.39
2022-12-14T17:10:32.839Z,5.44
2022-12-14T17:12:35.035Z,5.42
2022-12-14T17:14:37.149Z,5.43
2022-12-14T17:16:39.790Z,5.39
2022-12-14T17:18:45.297Z,5.43
2022-12-14T17:20:47.538Z,5.49
2022-12-14T17:22:50.197Z,5.55
2022-12-14T17:24:52.536Z,5.58
2022-12-14T17:26:54.589Z,5.63
2022-12-14T17:28:57.582Z,5.62
2022-12-14T17:31:01.969Z,5.55
2022-12-14T17:33:04.194Z,5.53
2022-12-14T17:35:10.815Z,5.53
2022-12-14T17:37:24.609Z,5.43
2022-12-14T17:39:28.846Z,5.47
2022-12-14T17:41:31.206Z,5.46
2022-12-14T17:43:33.698Z,5.50
2022-12-14T17:45:36.091Z,5.39
2022-12-14T17:47:38.225Z,5.30
2022-12-14T17:49:42.439Z,5.24
2022-12-14T17:51:46.689Z,5.25
2022-12-14T17:53:49.371Z,5.25
2022-12-14T17:55:51.468Z,5.27
2022-12-14T17:57:54.616Z,5.32
2022-12-14T18:00:15.534Z,5.34
2022-12-14T18:02:26.646Z,5.30
2022-12-14T18:04:28.942Z,5.31
2022-12-14T18:06:33.926Z,5.29
2022-12-14T18:08:35.988Z,5.38
2022-12-14T18:10:39.093Z,5.29
2022-12-14T18:12:44.633Z,5.38
2022-12-14T18:14:47.133Z,5.37
2022-12-14T18:16:49.943Z,5.33
2022-12-14T18:18:54.321Z,5.46
2022-12-14T18:21:02.365Z,5.44
2022-12-14T18:23:04.442Z,5.52
2022-12-14T18:25:32.661Z,5.42
2022-12-14T18:27:34.645Z,5.47
2022-12-14T18:29:39.081Z,5.40
2022-12-14T18:31:41.326Z,5.35
2022-12-14T18:33:47.519Z,5.45
2022-12-14T18:35:50.784Z,5.42
2022-12-14T18:37:53.588Z,5.44
2022-12-14T18:39:55.682Z,5.45
2022-12-14T18:42:00.617Z,5.46
2022-12-14T18:44:02.891Z,5.45
2022-12-14T18:46:05.389Z,5.42
2022-12-14T18:48:07.770Z,5.36
2022-12-14T18:50:10.271Z,5.42
2022-12-14T18:52:13.122Z,5.38
2022-12-14T18:54:17.575Z,5.38
2022-12-14T18:56:22.191Z,5.41
2022-12-14T18:58:29.345Z,5.38
2022-12-14T19:00:36.491Z,5.36
2022-12-14T19:02:39.803Z,5.31
2022-12-14T19:04:42.298Z,5.31
2022-12-14T19:06:46.132Z,5.35
2022-12-14T19:08:49.521Z,5.36
2022-12-14T19:10:51.762Z,5.45
2022-12-14T19:12:54.299Z,5.46
2022-12-14T19:14:56.341Z,5.42
2022-12-14T19:16:58.820Z,5.37
2022-12-14T19:19:00.991Z,5.44
2022-12-14T19:21:04.026Z,5.49
2022-12-14T19:23:16.399Z,5.48
2022-12-14T19:25:19.832Z,5.53
2022-12-14T19:27:42.531Z,5.50
2022-12-14T19:29:44.290Z,5.49
2022-12-14T19:31:47.794Z,5.48
2022-12-14T19:33:54.337Z,5.44
2022-12-14T19:35:56.666Z,5.55
2022-12-14T19:37:58.792Z,5.57
2022-12-14T19:40:02.803Z,5.55
2022-12-14T19:42:04.992Z,5.56
2022-12-14T19:44:07.448Z,5.54
2022-12-14T19:46:11.504Z,5.49
2022-12-14T19:48:13.806Z,5.44
2022-12-14T19:50:16.550Z,5.52
2022-12-14T19:52:18.656Z,5.54
2022-12-14T19:54:20.787Z,5.50
2022-12-14T19:56:23.516Z,5.51
2022-12-14T19:58:25.609Z,5.50
2022-12-14T20:00:28.031Z,5.45
2022-12-14T20:02:30.261Z,5.57
2022-12-14T20:04:35.436Z,5.62
2022-12-14T20:06:37.827Z,5.65
2022-12-14T20:08:39.966Z,5.66
2022-12-14T20:10:42.277Z,5.73
2022-12-14T20:12:44.352Z,5.71
2022-12-14T20:14:49.360Z,5.71
2022-12-14T20:16:52.627Z,5.79
2022-12-14T20:18:54.781Z,5.79
2022-12-14T20:21:16.034Z,5.71
2022-12-14T20:23:22.406Z,5.76
2022-12-14T20:25:25.081Z,5.86
2022-12-14T20:27:27.283Z,5.88
2022-12-14T20:29:29.461Z,5.95
2022-12-14T20:31:34.963Z,5.87
2022-12-14T20:33:38.835Z,5.95
2022-12-14T20:35:43.548Z,5.95
2022-12-14T20:37:46.372Z,6.00
2022-12-14T20:39:48.873Z,5.96
2022-12-14T20:41:54.096Z,6.03
2022-12-14T20:43:56.307Z,5.97
2022-12-14T20:45:58.751Z,5.99
2022-12-14T20:48:00.902Z,6.04
2022-12-14T20:50:06.940Z,6.01
2022-12-14T20:52:09.266Z,6.01
2022-12-14T20:54:17.794Z,5.95
2022-12-14T20:56:19.789Z,5.99
2022-12-14T20:58:22.320Z,5.97
2022-12-14T21:00:24.698Z,5.95
2022-12-14T21:02:26.858Z,5.82
2022-12-14T21:04:29.092Z,5.84
2022-12-14T21:06:33.150Z,5.86
2022-12-14T21:08:54.208Z,5.86
2022-12-14T21:11:23.762Z,5.86
2022-12-14T21:13:25.768Z,5.90
2022-12-14T21:15:28.424Z,5.93
2022-12-14T21:17:31.381Z,5.94
2022-12-14T21:19:33.614Z,5.95
2022-12-14T21:21:35.447Z,5.95
2022-12-14T21:23:41.237Z,5.96
2022-12-14T21:25:44.198Z,6.04
2022-12-14T21:27:46.540Z,6.06
2022-12-14T21:29:49.472Z,6.06
2022-12-14T21:31:51.554Z,6.06
2022-12-14T21:33:58.537Z,6.05
2022-12-14T21:36:00.785Z,6.05
2022-12-14T21:38:03.137Z,6.02
2022-12-14T21:40:05.815Z,6.00
2022-12-14T21:42:10.577Z,5.97
2022-12-14T21:44:12.697Z,5.93
2022-12-14T21:46:18.771Z,5.91
2022-12-14T21:48:21.059Z,5.90
2022-12-14T21:50:23.208Z,5.89
2022-12-14T21:52:26.707Z,5.90
2022-12-14T21:54:29.029Z,5.92
2022-12-14T21:56:49.541Z,5.95
2022-12-14T21:58:53.125Z,5.95
2022-12-14T22:00:56.403Z,5.88
2022-12-14T22:02:58.972Z,5.87
2022-12-14T22:05:01.074Z,5.89
2022-12-14T22:07:03.339Z,5.90
2022-12-14T22:09:05.978Z,5.90
2022-12-14T22:11:08.418Z,5.89
2022-12-14T22:13:10.554Z,5.94
2022-12-14T22:15:12.817Z,5.85
2022-12-14T22:17:14.973Z,5.96
2022-12-14T22:19:22.372Z,5.93
2022-12-14T22:21:24.457Z,5.90
2022-12-14T22:23:26.712Z,5.85
2022-12-14T22:25:29.216Z,5.82
2022-12-14T22:27:31.650Z,5.83
2022-12-14T22:29:33.882Z,5.96
2022-12-14T22:31:37.429Z,6.00
2022-12-14T22:33:39.673Z,6.00
2022-12-14T22:35:41.734Z,6.11
2022-12-14T22:37:43.821Z,6.07
2022-12-14T22:39:48.780Z,6.08
2022-12-14T22:41:51.142Z,6.04
2022-12-14T22:43:57.877Z,6.06
2022-12-14T22:46:04.036Z,6.05
2022-12-14T22:48:06.314Z,5.94
2022-12-14T22:50:09.117Z,5.95
2022-12-14T22:52:11.398Z,5.95
2022-12-14T22:54:21.207Z,5.88
2022-12-14T22:56:34.727Z,5.89
2022-12-14T22:58:39.651Z,5.85
2022-12-14T23:00:41.956Z,5.86
2022-12-14T23:02:48.196Z,5.82
2022-12-14T23:04:51.204Z,5.84
2022-12-14T23:06:54.333Z,5.82
2022-12-14T23:09:15.204Z,5.80
2022-12-14T23:11:36.013Z,5.77
2022-12-14T23:13:56.803Z,5.82
2022-12-14T23:16:17.799Z,5.79
2022-12-14T23:18:39.039Z,5.82
2022-12-14T23:20:59.526Z,5.79
2022-12-14T23:23:24.381Z,5.78
2022-12-14T23:25:45.434Z,5.80
2022-12-14T23:28:05.967Z,5.90
2022-12-14T23:30:27.606Z,5.96
2022-12-14T23:32:48.276Z,5.99
2022-12-14T23:35:09.423Z,6.09
2022-12-14T23:37:30.108Z,6.18
2022-12-14T23:39:51.347Z,6.21
2022-12-14T23:42:12.596Z,6.19
2022-12-14T23:44:33.102Z,6.12
2022-12-14T23:46:53.809Z,6.10
2022-12-14T23:49:16.232Z,6.13
2022-12-14T23:51:37.054Z,6.08
2022-12-14T23:53:57.921Z,6.06
2022-12-14T23:56:19.318Z,6.03
2022-12-14T23:58:40.108Z,5.99
